createdAt,value
2023-05-10T00:00:18.842Z,9.22
2023-05-10T00:05:46.901Z,9.15
2023-05-10T00:11:08.803Z,9.05
2023-05-10T00:16:30.468Z,8.96
2023-05-10T00:21:52.376Z,8.88
2023-05-10T00:27:15.741Z,8.84
2023-05-10T00:32:37.721Z,8.79
2023-05-10T00:37:59.463Z,8.72
2023-05-10T00:43:21.463Z,8.64
2023-05-10T00:48:44.713Z,8.55
2023-05-10T00:54:06.402Z,8.48
2023-05-10T00:59:29.592Z,8.42
2023-05-10T01:04:53.140Z,8.35
2023-05-10T01:10:15.960Z,8.30
2023-05-10T01:15:38.863Z,8.24
2023-05-10T01:21:16.224Z,8.19
2023-05-10T01:27:00.193Z,8.17
2023-05-10T01:32:36.271Z,8.13
2023-05-10T01:38:09.112Z,8.07
2023-05-10T01:43:35.472Z,8.01
2023-05-10T01:48:59.512Z,7.92
2023-05-10T01:54:23.937Z,7.86
2023-05-10T01:59:46.699Z,7.77
2023-05-10T02:05:09.634Z,7.65
2023-05-10T02:10:33.494Z,7.55
2023-05-10T02:15:56.295Z,7.50
2023-05-10T02:21:18.362Z,7.47
2023-05-10T02:26:40.639Z,7.44
2023-05-10T02:32:03.860Z,7.38
2023-05-10T02:37:26.436Z,7.29
2023-05-10T02:42:50.964Z,7.14
2023-05-10T02:48:13.482Z,7.13
2023-05-10T02:53:37.084Z,7.07
2023-05-10T02:58:58.763Z,7.01
2023-05-10T03:04:20.645Z,6.96
2023-05-10T03:09:44.887Z,6.87
2023-05-10T03:15:28.014Z,6.79
2023-05-10T03:20:51.938Z,6.73
2023-05-10T03:26:22.867Z,6.72
2023-05-10T03:31:45.401Z,6.71
2023-05-10T03:37:07.330Z,6.72
2023-05-10T03:42:29.765Z,6.75
2023-05-10T03:47:52.159Z,6.75
2023-05-10T03:53:14.313Z,6.80
2023-05-10T03:58:40.104Z,6.86
2023-05-10T04:04:01.930Z,6.92
2023-05-10T04:09:27.970Z,7.01
2023-05-10T04:14:49.761Z,7.12
2023-05-10T04:20:12.293Z,7.27
2023-05-10T04:25:36.610Z,7.53
2023-05-10T04:31:05.226Z,7.73
2023-05-10T04:36:28.659Z,7.93
2023-05-10T04:41:52.898Z,8.12
2023-05-10T04:47:14.821Z,8.33
2023-05-10T04:52:41.428Z,8.57
2023-05-10T04:58:03.914Z,8.83
2023-05-10T05:03:26.202Z,9.10
2023-05-10T05:08:50.753Z,9.42
2023-05-10T05:14:12.611Z,9.65
2023-05-10T05:19:37.193Z,9.86
2023-05-10T05:25:04.929Z,10.05
2023-05-10T05:30:26.726Z,10.18
2023-05-10T05:35:51.828Z,10.42
2023-05-10T05:41:13.588Z,10.63
2023-05-10T05:46:35.016Z,10.80
2023-05-10T05:52:01.120Z,10.99
2023-05-10T05:57:24.374Z,11.26
2023-05-10T06:02:46.510Z,11.51
2023-05-10T06:08:08.700Z,11.82
2023-05-10T06:13:33.418Z,12.09
2023-05-10T06:18:55.504Z,12.29
2023-05-10T06:24:17.474Z,12.50
2023-05-10T06:29:39.453Z,12.69
2023-05-10T06:35:01.188Z,12.92
2023-05-10T06:40:23.063Z,13.16
2023-05-10T06:45:45.066Z,13.38
2023-05-10T06:51:06.972Z,13.62
2023-05-10T06:56:29.006Z,13.85
2023-05-10T07:01:50.694Z,14.09
2023-05-10T07:07:24.184Z,14.22
2023-05-10T07:12:46.057Z,14.47
2023-05-10T07:18:08.190Z,14.67
2023-05-10T07:23:31.225Z,14.84
2023-05-10T07:28:53.509Z,14.99
2023-05-10T07:34:15.149Z,15.16
2023-05-10T07:39:36.767Z,15.32
2023-05-10T07:44:58.837Z,15.55
2023-05-10T07:50:22.766Z,15.79
2023-05-10T07:55:44.496Z,16.04
2023-05-10T08:01:06.713Z,16.29
2023-05-10T08:06:31.053Z,16.46
2023-05-10T08:11:53.139Z,16.54
2023-05-10T08:17:15.548Z,16.60
2023-05-10T08:22:37.153Z,16.78
2023-05-10T08:27:58.742Z,16.95
2023-05-10T08:33:20.968Z,17.02
2023-05-10T08:38:42.516Z,17.16
2023-05-10T08:44:06.328Z,17.32
2023-05-10T08:49:30.657Z,17.51
2023-05-10T08:54:53.000Z,17.72
2023-05-10T09:00:15.434Z,17.88
2023-05-10T09:05:40.518Z,18.01
2023-05-10T09:11:52.589Z,18.14
2023-05-10T09:17:47.943Z,18.37
2023-05-10T09:23:09.557Z,18.55
2023-05-10T09:28:35.569Z,18.49
2023-05-10T09:33:57.424Z,18.74
2023-05-10T09:39:22.013Z,18.90
2023-05-10T09:44:44.609Z,18.80
2023-05-10T09:50:07.761Z,18.92
2023-05-10T09:55:47.166Z,19.13
2023-05-10T10:01:13.421Z,19.09
2023-05-10T10:06:39.108Z,19.20
2023-05-10T10:12:01.806Z,19.51
2023-05-10T10:17:26.347Z,19.76
2023-05-10T10:22:48.609Z,20.06
2023-05-10T10:28:19.673Z,20.26
2023-05-10T10:33:57.636Z,20.34
2023-05-10T10:39:19.964Z,20.16
2023-05-10T10:44:43.018Z,19.87
2023-05-10T10:50:06.881Z,19.96
2023-05-10T10:55:30.846Z,20.07
2023-05-10T11:01:13.838Z,20.14
2023-05-10T11:06:37.067Z,19.86
2023-05-10T11:12:01.209Z,19.51
2023-05-10T11:17:26.172Z,19.68
2023-05-10T11:22:56.941Z,20.09
2023-05-10T11:28:20.951Z,20.38
2023-05-10T11:39:27.832Z,20.36
2023-05-10T11:44:49.569Z,20.08
2023-05-10T11:50:12.521Z,20.37
2023-05-10T11:55:34.936Z,20.77
2023-05-10T12:00:56.861Z,21.07
2023-05-10T12:06:20.095Z,21.32
2023-05-10T12:11:44.495Z,21.54
2023-05-10T12:17:06.505Z,21.63
2023-05-10T12:22:29.396Z,21.43
2023-05-10T12:27:53.816Z,21.09
2023-05-10T12:33:18.788Z,20.52
2023-05-10T12:38:48.696Z,20.41
2023-05-10T12:44:12.933Z,20.29
2023-05-10T12:49:35.239Z,20.28
2023-05-10T12:54:57.036Z,20.44
2023-05-10T13:00:19.569Z,20.23
2023-05-10T13:05:41.490Z,20.17
2023-05-10T13:11:04.223Z,19.94
2023-05-10T13:16:25.984Z,19.72
2023-05-10T13:21:48.770Z,19.55
2023-05-10T13:27:11.216Z,19.33
2023-05-10T13:32:33.877Z,19.26
2023-05-10T13:37:58.695Z,19.27
2023-05-10T13:43:21.287Z,19.33
2023-05-10T13:48:46.059Z,19.70
2023-05-10T13:54:07.794Z,19.92
2023-05-10T13:59:30.227Z,19.71
2023-05-10T14:04:52.250Z,19.63
2023-05-10T14:10:14.222Z,19.46
2023-05-10T14:15:36.116Z,19.37
2023-05-10T14:20:57.747Z,19.35
2023-05-10T14:26:19.766Z,19.30
2023-05-10T14:31:41.724Z,19.16
2023-05-10T14:37:03.839Z,19.06
2023-05-10T14:42:25.572Z,19.03
2023-05-10T14:47:47.509Z,18.99
2023-05-10T14:54:05.548Z,18.89
2023-05-10T14:59:46.707Z,18.84
2023-05-10T15:05:09.390Z,18.83
2023-05-10T15:10:33.817Z,18.80
2023-05-10T15:15:56.876Z,18.82
2023-05-10T15:21:18.728Z,18.90
2023-05-10T15:26:40.466Z,18.87
2023-05-10T15:32:03.945Z,18.73
2023-05-10T15:37:25.575Z,18.77
2023-05-10T15:42:47.461Z,19.18
2023-05-10T15:48:09.444Z,19.36
2023-05-10T15:53:31.573Z,19.27
2023-05-10T15:58:53.952Z,19.22
2023-05-10T16:04:15.673Z,19.21
2023-05-10T16:09:37.539Z,19.15
2023-05-10T16:14:59.633Z,19.08
2023-05-10T16:20:21.770Z,19.02
2023-05-10T16:25:43.597Z,19.05
2023-05-10T16:31:05.473Z,19.10
2023-05-10T16:36:29.413Z,19.17
2023-05-10T16:41:51.492Z,19.21
2023-05-10T16:47:16.539Z,19.19
2023-05-10T16:52:38.733Z,19.12
2023-05-10T16:58:01.101Z,18.95
2023-05-10T17:03:23.497Z,18.84
2023-05-10T17:08:45.651Z,18.65
2023-05-10T17:14:07.479Z,18.48
2023-05-10T17:19:29.105Z,18.32
2023-05-10T17:24:51.141Z,18.16
2023-05-10T17:30:13.588Z,18.03
2023-05-10T17:35:35.416Z,17.93
2023-05-10T17:40:57.136Z,17.83
2023-05-10T17:46:19.196Z,17.64
2023-05-10T17:51:44.101Z,17.39
2023-05-10T17:57:06.323Z,17.20
2023-05-10T18:02:28.100Z,17.07
2023-05-10T18:07:50.092Z,16.83
2023-05-10T18:13:12.206Z,16.61
2023-05-10T18:18:33.772Z,16.46
2023-05-10T18:23:55.762Z,16.29
2023-05-10T18:29:17.891Z,16.07
2023-05-10T18:34:39.530Z,15.91
2023-05-10T18:40:02.387Z,15.75
2023-05-10T18:45:24.388Z,15.59
2023-05-10T18:50:46.015Z,15.42
2023-05-10T18:56:08.053Z,15.27
2023-05-10T19:01:29.695Z,15.15
2023-05-10T19:06:51.613Z,15.05
2023-05-10T19:12:13.331Z,14.93
2023-05-10T19:17:37.099Z,14.85
2023-05-10T19:23:18.670Z,14.77
2023-05-10T19:28:41.000Z,14.67
2023-05-10T19:34:05.971Z,14.59
2023-05-10T19:39:28.172Z,14.51
2023-05-10T19:44:53.143Z,14.42
2023-05-10T19:50:16.486Z,14.34
2023-05-10T19:55:38.327Z,14.25
2023-05-10T20:01:00.468Z,14.12
2023-05-10T20:06:22.328Z,14.01
2023-05-10T20:11:43.872Z,13.93
2023-05-10T20:17:09.459Z,13.81
2023-05-10T20:22:31.334Z,13.72
2023-05-10T20:27:53.257Z,13.65
2023-05-10T20:33:17.765Z,13.55
2023-05-10T20:38:39.931Z,13.51
2023-05-10T20:44:01.659Z,13.41
2023-05-10T20:49:23.685Z,13.34
2023-05-10T20:54:45.417Z,13.29
2023-05-10T21:00:10.667Z,13.20
2023-05-10T21:05:33.046Z,13.12
2023-05-10T21:10:54.914Z,13.04
2023-05-10T21:16:16.870Z,12.94
2023-05-10T21:21:38.796Z,12.84
2023-05-10T21:27:01.394Z,12.75
2023-05-10T21:32:23.566Z,12.65
2023-05-10T21:37:45.725Z,12.57
2023-05-10T21:43:08.411Z,12.49
2023-05-10T21:48:30.996Z,12.45
2023-05-10T21:53:53.159Z,12.38
2023-05-10T21:59:14.996Z,12.28
2023-05-10T22:04:36.822Z,12.15
2023-05-10T22:09:58.990Z,12.06
2023-05-10T22:15:20.792Z,11.99
2023-05-10T22:20:47.370Z,11.92
2023-05-10T22:26:09.621Z,11.86
2023-05-10T22:31:31.695Z,11.83
2023-05-10T22:36:53.974Z,11.88
2023-05-10T22:42:16.674Z,11.94
2023-05-10T22:47:38.489Z,12.01
2023-05-10T22:53:01.024Z,12.06
2023-05-10T22:58:22.968Z,12.03
2023-05-10T23:03:44.873Z,11.94
2023-05-10T23:09:09.874Z,11.91
2023-05-10T23:14:31.570Z,11.86
2023-05-10T23:19:53.563Z,11.81
2023-05-10T23:25:15.811Z,11.66
2023-05-10T23:30:37.406Z,11.59
2023-05-10T23:36:01.830Z,11.56
2023-05-10T23:41:24.918Z,11.48
2023-05-10T23:46:46.811Z,11.41
2023-05-10T23:52:08.774Z,11.34
2023-05-10T23:57:30.363Z,11.25
